Time;durP1;ratioP1;P1;durP2;ratioP2;P2;SDS_P1;SDS_P2;PMS_P1;PMS_P2;Temp;Humidity;BMP_temperature;BMP_pressure;BME280_temperature;BME280_humidity;BME280_pressure;Samples;Min_cycle;Max_cycle;Signal;HPM_P1;HPM_P2
2023/11/22 00:04:21;;;;;;;3.00;1.60;;;;;;;5.10;58.40;100695.47;10513071;28;20467;-65
2023/11/22 00:09:23;;;;;;;2.10;1.40;;;;;;;4.97;58.18;100695.81;10513965;28;20051;-64
2023/11/22 00:14:25;;;;;;;2.40;1.52;;;;;;;4.99;58.67;100699.22;10499227;28;20101;-63
2023/11/22 00:19:27;;;;;;;2.42;1.15;;;;;;;5.03;58.69;100704.28;10517041;28;20048;-64
2023/11/22 00:24:30;;;;;;;1.98;1.42;;;;;;;5.10;59.09;100703.25;10514265;28;20043;-65
2023/11/22 00:29:32;;;;;;;13.85;1.55;;;;;;;5.16;58.73;100710.88;10517087;28;20039;-64
2023/11/22 00:34:34;;;;;;;1.92;1.42;;;;;;;5.22;59.41;100717.63;10516136;28;20433;-64
2023/11/22 00:39:36;;;;;;;2.72;1.70;;;;;;;5.30;59.45;100719.16;10514951;28;20063;-64
2023/11/22 00:44:38;;;;;;;4.50;1.73;;;;;;;5.19;59.30;100722.88;10513675;28;20048;-64
2023/11/22 00:49:40;;;;;;;1.77;1.40;;;;;;;5.16;59.98;100729.03;10507267;28;20148;-65
2023/11/22 00:54:42;;;;;;;1.92;1.23;;;;;;;5.19;60.10;100733.25;10489158;28;20044;-65
2023/11/22 00:59:44;;;;;;;1.83;1.33;;;;;;;5.26;59.91;100734.81;10507675;28;20048;-64
2023/11/22 01:04:46;;;;;;;1.85;1.40;;;;;;;5.41;59.95;100742.22;10512362;28;20135;-64
2023/11/22 01:09:48;;;;;;;3.45;1.70;;;;;;;5.50;59.98;100745.41;10512976;28;20750;-66
2023/11/22 01:14:50;;;;;;;3.65;1.48;;;;;;;5.50;60.20;100744.56;10514648;28;20533;-66
2023/11/22 01:19:52;;;;;;;2.53;1.55;;;;;;;5.44;60.79;100740.41;10511882;28;20087;-65
2023/11/22 01:24:55;;;;;;;1.60;1.10;;;;;;;5.47;60.70;100752.44;10474740;28;20043;-66
2023/11/22 01:29:57;;;;;;;3.08;1.67;;;;;;;5.52;60.67;100751.44;10510603;28;20052;-65
2023/11/22 01:34:59;;;;;;;4.18;1.70;;;;;;;5.45;61.12;100754.22;10511443;28;20029;-65
2023/11/22 01:40:03;;;;;;;2.53;1.50;;;;;;;5.52;60.72;100758.34;10481541;28;20450;-65
2023/11/22 01:45:06;;;;;;;3.88;1.80;;;;;;;5.63;60.70;100760.66;10489303;28;20306;-66
2023/11/22 01:50:08;;;;;;;2.20;1.50;;;;;;;5.78;60.25;100778.44;10489147;28;20044;-65
2023/11/22 01:55:12;;;;;;;2.42;1.42;;;;;;;5.76;60.07;100778.47;10509728;28;20068;-65
2023/11/22 02:00:15;;;;;;;2.85;1.55;;;;;;;5.73;59.35;100778.56;10475690;28;20075;-65
2023/11/22 02:05:18;;;;;;;3.85;1.85;;;;;;;5.49;58.91;100790.41;10510018;28;20040;-65
2023/11/22 02:10:20;;;;;;;3.15;2.10;;;;;;;5.48;59.25;100786.13;10510236;28;20144;-65
2023/11/22 02:15:22;;;;;;;4.97;1.50;;;;;;;5.40;58.88;100789.78;10510444;28;20105;-65
2023/11/22 02:20:24;;;;;;;2.83;1.55;;;;;;;5.48;59.16;100793.03;10488313;28;20051;-65
2023/11/22 02:25:26;;;;;;;2.80;1.60;;;;;;;5.37;58.83;100797.66;10502561;28;20097;-66
2023/11/22 02:30:28;;;;;;;2.65;1.70;;;;;;;5.47;59.56;100788.75;10481915;28;20040;-66
2023/11/22 02:35:31;;;;;;;2.40;1.42;;;;;;;5.65;59.53;100783.09;10483419;28;20040;-65
2023/11/22 02:40:34;;;;;;;4.20;1.70;;;;;;;5.73;59.73;100794.13;10513903;28;20055;-65
2023/11/22 02:45:36;;;;;;;2.08;1.40;;;;;;;5.75;59.91;100797.53;10497540;28;20117;-66
2023/11/22 02:50:39;;;;;;;3.20;1.50;;;;;;;5.76;60.07;100795.78;10481401;28;20052;-66
2023/11/22 02:55:41;;;;;;;2.10;1.35;;;;;;;5.71;59.47;100810.63;10501891;28;20119;-65
2023/11/22 03:00:43;;;;;;;1.90;1.40;;;;;;;5.63;59.67;100823.81;10496504;28;20056;-65
2023/11/22 03:05:45;;;;;;;2.08;1.27;;;;;;;5.20;58.69;100841.28;10516193;28;20052;-66
2023/11/22 03:10:47;;;;;;;2.30;1.52;;;;;;;5.07;58.77;100834.69;10517346;28;20040;-65
2023/11/22 03:15:49;;;;;;;3.85;1.90;;;;;;;4.88;59.05;100831.69;10518252;28;20106;-65
2023/11/22 03:20:54;;;;;;;1.77;1.27;;;;;;;4.63;59.08;100835.66;10492568;28;20446;-65
2023/11/22 03:25:56;;;;;;;1.80;1.02;;;;;;;4.45;59.12;100838.66;10494679;28;20142;-65
2023/11/22 03:30:59;;;;;;;1.95;1.20;;;;;;;4.34;59.00;100848.34;10515860;28;20040;-65
2023/11/22 03:36:02;;;;;;;1.95;1.30;;;;;;;4.23;58.92;100851.16;10500061;28;20036;-65
2023/11/22 03:41:05;;;;;;;2.47;1.40;;;;;;;4.16;59.34;100865.13;10517725;28;20051;-65
2023/11/22 03:46:07;;;;;;;1.58;0.95;;;;;;;4.07;59.29;100875.63;10479327;28;20272;-65
2023/11/22 03:51:10;;;;;;;2.28;1.13;;;;;;;4.08;59.37;100877.34;10498583;28;20036;-65
2023/11/22 03:56:12;;;;;;;1.63;1.00;;;;;;;4.02;59.62;100885.22;10493314;28;20048;-66
2023/11/22 04:01:14;;;;;;;1.13;1.00;;;;;;;3.92;59.55;100882.81;10516569;28;20040;-65
2023/11/22 04:06:16;;;;;;;2.30;1.40;;;;;;;3.72;59.60;100894.31;10516125;28;20131;-65
2023/11/22 04:11:19;;;;;;;2.53;1.30;;;;;;;3.58;59.67;100900.59;10499822;28;20040;-65
2023/11/22 04:16:21;;;;;;;1.27;1.10;;;;;;;3.51;60.16;100910.19;10516624;28;20171;-65
2023/11/22 04:21:24;;;;;;;1.85;1.30;;;;;;;3.34;60.68;100907.00;10517350;28;21065;-65
2023/11/22 04:26:26;;;;;;;2.75;1.23;;;;;;;3.22;60.35;100927.00;10514376;28;20147;-65
2023/11/22 04:31:28;;;;;;;3.03;1.48;;;;;;;3.28;60.56;100940.69;10516715;28;20036;-66
2023/11/22 04:36:30;;;;;;;2.03;1.23;;;;;;;3.23;60.75;100946.81;10497128;28;20050;-65
2023/11/22 04:41:33;;;;;;;2.20;1.25;;;;;;;3.10;60.60;100959.06;10510989;28;20044;-64
2023/11/22 04:46:35;;;;;;;3.53;1.35;;;;;;;2.91;60.30;100970.47;10513735;28;20051;-64
2023/11/22 04:51:37;;;;;;;3.17;1.50;;;;;;;2.95;60.40;100974.72;10514586;28;20044;-65
2023/11/22 04:56:39;;;;;;;1.77;1.15;;;;;;;2.87;59.94;100977.41;10509674;28;20827;-64
2023/11/22 05:01:41;;;;;;;2.15;1.10;;;;;;;2.85;59.98;100978.31;10506990;28;20524;-64
2023/11/22 05:06:44;;;;;;;2.08;1.10;;;;;;;2.86;59.80;100986.06;10513888;28;20264;-65
2023/11/22 05:11:46;;;;;;;2.58;1.55;;;;;;;2.74;60.10;100990.50;10496741;28;20051;-64
2023/11/22 05:16:48;;;;;;;1.73;1.05;;;;;;;2.64;60.34;100984.56;10506941;28;20184;-65
2023/11/22 05:21:50;;;;;;;3.13;1.55;;;;;;;2.58;60.25;100983.78;10510471;28;20059;-64
2023/11/22 05:26:52;;;;;;;2.00;1.30;;;;;;;2.51;59.78;100983.00;10509158;28;20094;-65
2023/11/22 05:31:54;;;;;;;2.65;1.20;;;;;;;2.43;58.86;100996.84;10510170;28;20048;-64
2023/11/22 05:36:56;;;;;;;1.60;1.08;;;;;;;2.44;58.94;100985.66;10509279;28;20046;-65
2023/11/22 05:41:58;;;;;;;2.00;1.40;;;;;;;2.42;58.44;100992.56;10511091;28;20056;-65
2023/11/22 05:47:00;;;;;;;0.98;0.80;;;;;;;2.37;58.17;100994.31;10511610;28;20044;-64
2023/11/22 05:52:02;;;;;;;1.67;0.98;;;;;;;2.34;57.95;101009.88;10513846;28;20048;-64
2023/11/22 05:57:04;;;;;;;2.58;0.93;;;;;;;2.25;58.03;101017.66;10520232;28;20052;-65
2023/11/22 06:02:06;;;;;;;4.57;1.00;;;;;;;2.22;58.72;101028.88;10502164;28;20060;-64
2023/11/22 06:07:08;;;;;;;1.33;1.00;;;;;;;2.17;58.05;101038.41;10504712;28;20048;-64
2023/11/22 06:12:10;;;;;;;1.63;1.08;;;;;;;2.20;57.31;101026.31;10521904;28;20039;-64
2023/11/22 06:17:12;;;;;;;1.55;1.00;;;;;;;2.16;56.22;101040.09;10522326;28;21133;-65
2023/11/22 06:22:16;;;;;;;1.05;0.90;;;;;;;2.06;58.15;101045.34;10521365;28;20055;-65
2023/11/22 06:27:18;;;;;;;0.98;0.80;;;;;;;2.06;57.38;101060.81;10520526;28;20130;-65
2023/11/22 06:32:20;;;;;;;3.20;1.00;;;;;;;2.10;57.65;101063.38;10499721;28;20039;-65
2023/11/22 06:37:22;;;;;;;1.85;1.00;;;;;;;2.09;56.74;101060.81;10520614;28;20044;-64
2023/11/22 06:42:24;;;;;;;1.83;0.80;;;;;;;2.05;55.89;101061.72;10519198;28;20056;-65
2023/11/22 06:47:27;;;;;;;1.05;0.90;;;;;;;2.03;55.85;101066.03;10518684;28;20048;-64
2023/11/22 06:52:29;;;;;;;1.10;0.90;;;;;;;1.96;56.71;101080.69;10515394;28;20435;-65
2023/11/22 06:57:31;;;;;;;1.45;1.00;;;;;;;1.84;57.14;101100.53;10513883;28;20052;-64
2023/11/22 07:02:35;;;;;;;1.80;1.20;;;;;;;1.78;58.53;101110.88;10515966;28;20048;-65
2023/11/22 07:07:38;;;;;;;1.90;1.30;;;;;;;1.77;59.50;101111.72;10517857;28;20051;-64
2023/11/22 07:12:43;;;;;;;2.53;1.45;;;;;;;1.70;59.21;101120.38;10492442;28;20159;-65
2023/11/22 07:17:46;;;;;;;2.72;1.30;;;;;;;1.72;59.30;101124.69;10495745;28;20182;-65
2023/11/22 07:22:54;;;;;;;2.45;1.58;;;;;;;1.70;59.19;101116.09;10512954;28;20500;-65
2023/11/22 07:27:57;;;;;;;2.28;1.33;;;;;;;1.47;59.34;101115.31;10496513;28;20065;-65
2023/11/22 07:32:59;;;;;;;1.92;1.20;;;;;;;1.47;60.19;101115.31;10494131;28;20040;-66
2023/11/22 07:38:03;;;;;;;1.98;1.35;;;;;;;1.60;60.62;101122.16;10512407;28;20474;-65
2023/11/22 07:43:07;;;;;;;2.65;1.27;;;;;;;1.61;59.62;101103.22;10513137;28;20052;-65
2023/11/22 07:48:11;;;;;;;3.83;1.90;;;;;;;1.51;60.11;101111.88;10491961;28;20575;-65
2023/11/22 07:53:14;;;;;;;2.33;1.40;;;;;;;1.65;60.32;101117.81;10514599;28;20044;-65
2023/11/22 07:58:16;;;;;;;2.83;1.70;;;;;;;1.71;60.59;101122.09;10499381;28;20231;-65
2023/11/22 08:03:23;;;;;;;2.78;1.58;;;;;;;1.78;60.25;101134.97;10509947;28;20048;-65
2023/11/22 08:08:25;;;;;;;2.13;1.30;;;;;;;2.00;60.35;101149.44;10502804;28;20089;-65
2023/11/22 08:13:30;;;;;;;3.28;1.75;;;;;;;2.25;59.69;101162.22;10509995;28;20076;-65
2023/11/22 08:18:32;;;;;;;2.63;1.63;;;;;;;2.59;59.39;101163.66;10505249;28;20052;-64
2023/11/22 08:23:34;;;;;;;2.70;1.60;;;;;;;2.76;58.28;101170.44;10509220;28;20164;-65
2023/11/22 08:28:36;;;;;;;2.47;1.38;;;;;;;2.75;56.49;101166.13;10507179;28;20484;-65
2023/11/22 08:33:39;;;;;;;2.75;1.42;;;;;;;2.64;56.74;101170.50;10480554;28;20048;-65
2023/11/22 08:38:43;;;;;;;2.42;1.25;;;;;;;2.70;56.65;101164.47;10502515;28;20438;-65
2023/11/22 08:43:47;;;;;;;2.83;1.50;;;;;;;2.90;56.25;101162.56;10480505;28;20052;-65
2023/11/22 08:48:53;;;;;;;2.50;1.40;;;;;;;2.99;55.72;101168.50;10504647;28;20071;-65
2023/11/22 08:53:55;;;;;;;2.22;1.25;;;;;;;3.04;55.26;101147.78;10509854;28;20048;-65
2023/11/22 08:58:57;;;;;;;2.50;1.63;;;;;;;2.81;54.88;101144.53;10510173;28;20040;-65
2023/11/22 09:03:59;;;;;;;3.15;1.52;;;;;;;3.00;55.63;101154.72;10507294;28;20052;-65
2023/11/22 09:09:01;;;;;;;2.42;1.38;;;;;;;3.18;53.43;101157.97;10511354;28;20048;-65
2023/11/22 09:14:05;;;;;;;1.90;1.20;;;;;;;3.56;54.26;101166.16;10514280;28;20048;-65
2023/11/22 09:19:07;;;;;;;3.95;1.63;;;;;;;3.82;53.28;101162.38;10500179;28;20933;-65
2023/11/22 09:24:10;;;;;;;3.00;1.38;;;;;;;3.53;52.25;101171.38;10506831;28;20048;-65
2023/11/22 09:29:14;;;;;;;3.10;1.40;;;;;;;3.72;53.54;101173.72;10511243;28;20130;-65
2023/11/22 09:34:16;;;;;;;2.83;1.23;;;;;;;3.68;52.76;101190.16;10511561;28;20051;-65
2023/11/22 09:39:21;;;;;;;2.25;1.45;;;;;;;3.78;50.88;101203.88;10513302;28;20043;-64
2023/11/22 09:44:24;;;;;;;2.85;1.50;;;;;;;4.05;51.96;101231.19;10513663;28;20134;-65
2023/11/22 09:49:31;;;;;;;1.88;1.30;;;;;;;4.04;51.45;101250.16;10515375;28;20584;-65
2023/11/22 09:54:35;;;;;;;2.72;1.40;;;;;;;3.82;50.94;101249.53;10507318;28;20127;-65
2023/11/22 09:59:40;;;;;;;2.60;1.35;;;;;;;3.76;52.64;101216.78;10511142;28;20058;-65
2023/11/22 10:04:43;;;;;;;2.08;1.15;;;;;;;3.71;52.16;101223.78;10499449;28;20400;-65
2023/11/22 10:09:45;;;;;;;3.38;1.60;;;;;;;3.42;52.20;101218.03;10494519;28;20139;-65
2023/11/22 10:14:47;;;;;;;1.48;0.98;;;;;;;3.33;51.60;101235.38;10492780;28;20844;-65
2023/11/22 10:19:52;;;;;;;1.95;1.30;;;;;;;3.39;52.40;101236.19;10513711;28;20048;-65
2023/11/22 10:25:00;;;;;;;2.42;1.60;;;;;;;3.18;51.59;101238.97;10498971;28;20564;-65
2023/11/22 10:30:03;;;;;;;5.22;1.45;;;;;;;3.31;52.63;101237.13;10513204;28;20075;-65
2023/11/22 10:35:08;;;;;;;3.50;1.40;;;;;;;3.77;51.50;101220.25;10510189;28;20055;-65
2023/11/22 10:40:13;;;;;;;2.75;1.45;;;;;;;3.74;50.21;101215.13;10517675;28;20536;-65
2023/11/22 10:45:16;;;;;;;2.97;1.63;;;;;;;4.10;49.60;101226.78;10478975;28;20431;-65
2023/11/22 10:50:18;;;;;;;1.70;1.20;;;;;;;4.15;50.09;101240.53;10515221;28;20058;-65
2023/11/22 10:55:22;;;;;;;2.70;1.40;;;;;;;3.91;49.72;101226.16;10513269;28;21109;-65
2023/11/22 11:00:27;;;;;;;2.33;1.33;;;;;;;3.82;50.05;101214.13;10497317;28;20055;-65
2023/11/22 11:05:31;;;;;;;1.73;0.95;;;;;;;4.07;50.19;101225.06;10494312;28;20578;-65
2023/11/22 11:10:33;;;;;;;2.30;1.45;;;;;;;4.08;49.48;101226.81;10497195;28;20044;-65
2023/11/22 11:15:37;;;;;;;1.88;1.17;;;;;;;3.77;49.88;101243.53;10512536;28;20056;-65
2023/11/22 11:20:49;;;;;;;1.88;1.20;;;;;;;4.01;49.19;101230.34;10500897;28;20052;-65
2023/11/22 11:25:56;;;;;;;3.53;1.40;;;;;;;3.97;47.88;101251.94;10492070;28;20493;-65
2023/11/22 11:30:59;;;;;;;3.70;1.70;;;;;;;3.92;49.25;101237.38;10511604;28;20036;-65
2023/11/22 11:36:06;;;;;;;2.38;1.38;;;;;;;4.16;50.30;101256.03;10515678;28;20531;-66
2023/11/22 11:41:15;;;;;;;1.80;1.20;;;;;;;4.31;49.52;101242.88;10510169;28;21061;-65
2023/11/22 11:46:22;;;;;;;3.95;1.63;;;;;;;4.29;48.79;101229.09;10511504;28;20078;-65
2023/11/22 11:51:28;;;;;;;2.40;1.35;;;;;;;4.35;48.90;101213.47;10512391;28;20097;-65
2023/11/22 11:56:32;;;;;;;1.85;1.30;;;;;;;4.70;49.06;101216.41;10507045;28;20129;-65
2023/11/22 12:01:34;;;;;;;3.95;1.55;;;;;;;4.75;48.21;101205.97;10508638;28;20161;-65
2023/11/22 12:06:38;;;;;;;1.25;1.05;;;;;;;4.62;47.99;101194.94;10510772;28;20123;-65
2023/11/22 12:11:42;;;;;;;2.35;1.30;;;;;;;4.62;48.92;101187.16;10487399;28;20530;-65
2023/11/22 12:16:47;;;;;;;4.05;1.65;;;;;;;4.70;49.21;101192.22;10510051;28;20318;-65
2023/11/22 12:21:50;;;;;;;1.77;1.15;;;;;;;4.92;48.58;101203.13;10506360;28;20048;-65
2023/11/22 12:26:53;;;;;;;3.72;1.85;;;;;;;5.00;48.31;101183.09;10512726;28;20042;-65
2023/11/22 12:31:56;;;;;;;3.58;1.58;;;;;;;5.11;49.05;101183.75;10501115;28;20845;-65
2023/11/22 12:36:59;;;;;;;2.33;1.30;;;;;;;5.08;48.47;101192.47;10503592;28;20818;-65
2023/11/22 12:42:02;;;;;;;2.15;1.35;;;;;;;4.83;48.63;101196.34;10505989;28;20117;-65
2023/11/22 12:47:13;;;;;;;2.55;1.20;;;;;;;4.81;48.90;101198.09;10507659;28;20052;-65
2023/11/22 12:52:15;;;;;;;1.95;1.13;;;;;;;4.82;49.03;101186.00;10502272;28;20415;-65
2023/11/22 12:57:18;;;;;;;4.03;1.35;;;;;;;4.87;48.95;101160.84;10485245;28;20074;-65
2023/11/22 13:02:23;;;;;;;2.78;1.40;;;;;;;4.88;48.98;101134.06;10501864;28;20066;-65
2023/11/22 13:07:26;;;;;;;3.53;1.20;;;;;;;4.89;46.53;101117.63;10508262;28;20040;-66
2023/11/22 13:12:29;;;;;;;2.20;1.17;;;;;;;4.87;48.68;101111.59;10504521;28;20044;-65
2023/11/22 13:17:33;;;;;;;2.13;1.33;;;;;;;4.96;49.10;101091.56;10501301;28;20051;-65
2023/11/22 13:22:35;;;;;;;2.47;1.20;;;;;;;4.72;48.98;101095.44;10510222;28;20048;-65
2023/11/22 13:27:37;;;;;;;2.30;1.38;;;;;;;4.58;48.82;101099.16;10515185;28;20044;-65
2023/11/22 13:32:41;;;;;;;2.95;1.30;;;;;;;4.69;48.44;101099.84;10493304;28;20047;-65
2023/11/22 13:37:47;;;;;;;2.17;1.40;;;;;;;4.64;48.21;101114.59;10511858;28;20127;-65
2023/11/22 13:42:52;;;;;;;2.80;1.52;;;;;;;4.59;48.54;101124.19;10508732;28;20044;-66
2023/11/22 13:48:00;;;;;;;2.88;1.48;;;;;;;4.66;48.46;101126.66;10496437;28;20059;-65
2023/11/22 13:53:04;;;;;;;3.95;1.17;;;;;;;4.70;48.63;101127.44;10503900;28;20039;-65
2023/11/22 13:58:07;;;;;;;4.30;1.70;;;;;;;4.72;48.51;101132.63;10488214;28;20105;-65
2023/11/22 14:03:10;;;;;;;4.25;2.00;;;;;;;4.57;48.27;101123.34;10488933;28;20054;-65
2023/11/22 14:08:12;;;;;;;2.13;1.42;;;;;;;4.68;48.58;101090.34;10505544;28;20169;-65
2023/11/22 14:13:16;;;;;;;3.13;1.48;;;;;;;4.74;48.34;101116.13;10516576;28;20053;-65
2023/11/22 14:18:18;;;;;;;2.30;1.33;;;;;;;4.74;48.01;101105.78;10516811;28;20535;-65
2023/11/22 14:23:20;;;;;;;2.53;1.40;;;;;;;4.74;47.63;101110.13;10517798;28;20044;-65
2023/11/22 14:28:23;;;;;;;2.45;1.38;;;;;;;4.74;48.02;101103.19;10512953;28;20555;-65
2023/11/22 14:33:25;;;;;;;1.92;1.30;;;;;;;4.53;48.47;101104.44;10519731;28;20056;-65
2023/11/22 14:38:27;;;;;;;2.17;1.20;;;;;;;4.35;48.66;101104.69;10499274;28;20385;-65
2023/11/22 14:43:29;;;;;;;1.83;1.10;;;;;;;4.19;49.25;101116.19;10518262;28;20043;-65
2023/11/22 14:48:31;;;;;;;3.63;1.60;;;;;;;4.20;49.31;101130.84;10517387;28;20059;-65
2023/11/22 14:53:33;;;;;;;3.67;1.50;;;;;;;4.13;49.28;101143.91;10512204;28;20044;-65
2023/11/22 14:58:36;;;;;;;2.00;1.40;;;;;;;4.06;49.66;101152.63;10516411;28;20043;-65
2023/11/22 15:03:39;;;;;;;2.63;1.30;;;;;;;3.98;50.02;101172.59;10512200;28;20483;-65
2023/11/22 15:08:41;;;;;;;3.20;1.35;;;;;;;3.94;50.19;101184.72;10513044;28;20056;-65
2023/11/22 15:13:45;;;;;;;1.88;1.25;;;;;;;3.79;50.24;101167.63;10509363;28;20044;-65
2023/11/22 15:18:47;;;;;;;2.05;1.10;;;;;;;3.77;50.81;101181.44;10514392;28;20464;-65
2023/11/22 15:23:49;;;;;;;1.83;1.40;;;;;;;3.72;51.42;101194.41;10498665;28;20045;-65
2023/11/22 15:28:51;;;;;;;2.45;1.60;;;;;;;3.69;51.61;101194.47;10499987;28;20059;-65
2023/11/22 15:33:53;;;;;;;3.22;1.33;;;;;;;3.57;52.01;101202.38;10517108;28;20047;-65
2023/11/22 15:38:55;;;;;;;2.30;1.45;;;;;;;3.59;52.36;101207.53;10499610;28;20054;-65
2023/11/22 15:43:57;;;;;;;2.67;1.58;;;;;;;3.59;52.58;101218.72;10516056;28;20177;-65
2023/11/22 15:48:59;;;;;;;4.35;2.22;;;;;;;3.57;52.46;101210.13;10517181;28;20048;-65
2023/11/22 15:54:02;;;;;;;2.60;1.60;;;;;;;3.57;52.64;101198.94;10515220;28;20052;-66
2023/11/22 15:59:04;;;;;;;4.07;1.85;;;;;;;3.59;52.28;101207.53;10513716;28;20476;-65
2023/11/22 16:04:06;;;;;;;3.78;2.00;;;;;;;3.69;52.82;101193.59;10515873;28;20036;-65
2023/11/22 16:09:10;;;;;;;4.93;2.05;;;;;;;3.69;52.58;101194.47;10512933;28;20064;-65
2023/11/22 16:14:12;;;;;;;3.60;1.70;;;;;;;3.72;52.82;101199.59;10513969;28;20044;-65
2023/11/22 16:19:14;;;;;;;3.13;1.80;;;;;;;3.71;53.31;101194.44;10514864;28;20047;-64
2023/11/22 16:24:16;;;;;;;3.47;1.90;;;;;;;3.66;53.63;101189.31;10511725;28;20827;-65
2023/11/22 16:29:18;;;;;;;4.28;1.70;;;;;;;3.65;53.90;101189.34;10514395;28;20131;-63
2023/11/22 16:34:21;;;;;;;4.45;2.00;;;;;;;3.59;54.13;101186.84;10516192;28;20407;-62
2023/11/22 16:39:24;;;;;;;3.28;1.52;;;;;;;3.58;54.42;101169.59;10517184;28;20143;-62
2023/11/22 16:44:31;;;;;;;2.30;1.20;;;;;;;3.60;54.44;101179.03;10489859;28;20128;-62
2023/11/22 16:49:35;;;;;;;4.85;1.52;;;;;;;3.54;54.59;101181.69;10493293;28;20094;-63
2023/11/22 16:54:38;;;;;;;2.85;1.80;;;;;;;3.57;54.97;101173.06;10511762;28;20125;-64
2023/11/22 16:59:41;;;;;;;3.78;1.60;;;;;;;3.64;54.80;101169.53;10516244;28;20048;-63
2023/11/22 17:04:44;;;;;;;2.70;1.85;;;;;;;3.54;54.71;101201.53;10516431;28;20102;-63
2023/11/22 17:09:47;;;;;;;2.75;1.73;;;;;;;3.28;54.87;101204.41;10515726;28;20725;-64
2023/11/22 17:14:49;;;;;;;2.92;1.67;;;;;;;3.25;55.29;101195.81;10516731;28;20056;-64
2023/11/22 17:19:51;;;;;;;3.97;2.08;;;;;;;3.24;55.38;101189.78;10496929;28;20148;-63
2023/11/22 17:24:53;;;;;;;4.88;1.85;;;;;;;3.16;55.92;101170.06;10497525;28;20859;-63
2023/11/22 17:29:55;;;;;;;8.85;2.08;;;;;;;3.21;55.96;101170.88;10514661;28;20155;-63
2023/11/22 17:34:57;;;;;;;4.80;1.92;;;;;;;3.16;55.88;101170.06;10515371;28;20052;-63
2023/11/22 17:39:59;;;;;;;11.85;2.50;;;;;;;3.03;56.07;101159.84;10515104;28;20816;-63
2023/11/22 17:45:02;;;;;;;5.00;2.42;;;;;;;2.90;56.92;101172.91;10512833;28;20263;-63
2023/11/22 17:50:05;;;;;;;4.28;2.20;;;;;;;2.83;56.96;101166.91;10523057;28;20048;-62
2023/11/22 17:55:07;;;;;;;5.32;2.78;;;;;;;2.91;56.91;101164.25;10523064;28;20036;-63
2023/11/22 18:00:10;;;;;;;5.47;2.92;;;;;;;2.88;56.92;101151.38;10523633;28;20416;-63
2023/11/22 18:05:20;;;;;;;6.00;2.70;;;;;;;2.84;57.37;101176.41;10506578;28;20059;-63
2023/11/22 18:10:23;;;;;;;3.92;1.92;;;;;;;2.78;57.28;101171.28;10518745;28;20051;-63
2023/11/22 18:15:42;;;;;;;3.35;1.88;;;;;;;2.80;57.81;101171.25;10508393;28;20547;-63
2023/11/22 18:20:44;;;;;;;8.20;3.65;;;;;;;2.90;57.96;101160.84;10503766;28;20157;-63
2023/11/22 18:25:47;;;;;;;11.00;5.22;;;;;;;2.93;57.87;101168.53;10519521;28;20073;-63
2023/11/22 18:30:50;;;;;;;5.95;2.45;;;;;;;3.01;57.67;101163.28;10519614;28;20044;-62
2023/11/22 18:35:52;;;;;;;6.95;2.83;;;;;;;3.06;57.77;101166.72;10519062;28;20163;-63
2023/11/22 18:40:54;;;;;;;6.63;3.22;;;;;;;3.14;57.75;101146.81;10502558;28;20079;-63
2023/11/22 18:46:03;;;;;;;5.90;2.80;;;;;;;3.15;57.73;101137.34;10498122;28;20059;-63
2023/11/22 18:51:05;;;;;;;5.47;2.60;;;;;;;3.21;57.64;101132.09;10520749;28;20047;-63
2023/11/22 18:56:08;;;;;;;3.83;1.77;;;;;;;3.32;57.32;101125.06;10500956;28;20101;-63
2023/11/22 19:01:10;;;;;;;3.28;1.90;;;;;;;3.39;57.10;101127.59;10519332;28;20887;-63
2023/11/22 19:06:12;;;;;;;4.07;2.13;;;;;;;3.36;56.98;101126.75;10520496;28;20055;-63
2023/11/22 19:11:15;;;;;;;4.65;2.08;;;;;;;3.36;57.06;101124.16;10501104;28;20105;-63
2023/11/22 19:16:17;;;;;;;3.40;1.95;;;;;;;3.33;56.89;101127.66;10517788;28;20167;-63
2023/11/22 19:21:19;;;;;;;3.78;2.00;;;;;;;3.22;57.33;101131.22;10501227;28;20054;-63
2023/11/22 19:26:25;;;;;;;2.83;1.73;;;;;;;3.17;57.48;101102.84;10517149;28;20052;-64
2023/11/22 19:31:27;;;;;;;4.72;2.05;;;;;;;3.07;57.30;101105.56;10514142;28;20217;-64
2023/11/22 19:36:31;;;;;;;4.10;2.30;;;;;;;2.96;57.46;101122.03;10518666;28;20484;-63
2023/11/22 19:41:34;;;;;;;3.75;2.20;;;;;;;2.52;57.67;101137.03;10515720;28;20040;-63
2023/11/22 19:46:36;;;;;;;3.88;2.05;;;;;;;2.53;58.18;101132.72;10515929;28;20052;-63
2023/11/22 19:51:39;;;;;;;4.00;2.13;;;;;;;2.67;58.03;101138.63;10486842;28;20040;-63
2023/11/22 19:56:41;;;;;;;4.28;2.30;;;;;;;2.72;57.91;101154.97;10517438;28;20043;-62
2023/11/22 20:01:43;;;;;;;6.75;2.90;;;;;;;2.85;58.36;101141.91;10514149;28;20064;-63
2023/11/22 20:06:49;;;;;;;5.47;2.85;;;;;;;3.01;58.22;101140.91;10498449;28;20040;-63
2023/11/22 20:11:51;;;;;;;4.78;2.38;;;;;;;3.07;58.21;101134.81;10498689;28;20687;-63
2023/11/22 20:16:53;;;;;;;3.55;1.77;;;;;;;3.10;57.63;101121.88;10514903;28;20131;-63
2023/11/22 20:21:55;;;;;;;2.50;2.03;;;;;;;3.19;58.02;101108.00;10516659;28;20492;-63
2023/11/22 20:26:57;;;;;;;5.10;2.17;;;;;;;3.18;58.03;101104.56;10516169;28;20052;-62
2023/11/22 20:31:59;;;;;;;27.95;10.73;;;;;;;3.23;57.87;101097.63;10515941;28;20047;-63
2023/11/22 20:37:01;;;;;;;40.05;15.75;;;;;;;3.35;57.74;101105.22;10516375;28;20044;-63
2023/11/22 20:42:03;;;;;;;29.75;12.50;;;;;;;3.46;57.42;101107.66;10515852;28;20111;-63
2023/11/22 20:47:05;;;;;;;18.77;7.70;;;;;;;3.50;57.03;101107.63;10515880;28;20511;-63
2023/11/22 20:52:07;;;;;;;8.10;2.67;;;;;;;3.53;57.18;101096.38;10497705;28;20055;-63
2023/11/22 20:57:09;;;;;;;7.53;2.65;;;;;;;3.53;57.44;101094.66;10514248;28;20514;-63
2023/11/22 21:02:11;;;;;;;6.53;2.95;;;;;;;3.53;57.45;101109.31;10511538;28;20052;-64
2023/11/22 21:07:13;;;;;;;10.95;3.97;;;;;;;3.34;57.75;101107.81;10514593;28;20495;-63
2023/11/22 21:12:15;;;;;;;7.93;2.95;;;;;;;3.52;57.42;101092.94;10514870;28;20083;-63
2023/11/22 21:17:17;;;;;;;3.33;1.83;;;;;;;3.53;57.31;101092.06;10514632;28;20261;-62
2023/11/22 21:22:19;;;;;;;4.28;1.90;;;;;;;3.43;57.16;101093.06;10510207;28;20047;-63
2023/11/22 21:27:21;;;;;;;5.80;2.10;;;;;;;3.40;56.79;101105.16;10513604;28;20059;-63
2023/11/22 21:32:23;;;;;;;3.58;1.80;;;;;;;3.20;57.25;101107.97;10512944;28;20074;-63
2023/11/22 21:37:25;;;;;;;4.00;1.95;;;;;;;3.11;57.25;101084.78;10514821;28;20044;-63
2023/11/22 21:42:27;;;;;;;4.53;2.00;;;;;;;3.19;57.36;101087.31;10514062;28;20814;-63
2023/11/22 21:47:29;;;;;;;4.03;2.00;;;;;;;3.21;57.44;101106.25;10491623;28;20048;-63
2023/11/22 21:52:31;;;;;;;3.70;2.10;;;;;;;3.17;57.48;101100.28;10512998;28;20044;-63
2023/11/22 21:57:33;;;;;;;3.38;2.08;;;;;;;3.18;57.76;101101.97;10515183;28;20048;-62
2023/11/22 22:02:35;;;;;;;5.32;2.72;;;;;;;3.16;57.75;101084.75;10514892;28;20136;-62
2023/11/22 22:07:37;;;;;;;4.53;2.22;;;;;;;3.16;57.87;101077.00;10515137;28;20052;-63
2023/11/22 22:12:40;;;;;;;5.25;2.50;;;;;;;3.07;57.92;101081.41;10513288;28;20040;-63
2023/11/22 22:17:42;;;;;;;6.68;3.42;;;;;;;2.88;58.06;101087.66;10512913;28;20048;-63
2023/11/22 22:22:46;;;;;;;4.78;2.58;;;;;;;2.84;58.42;101098.88;10513323;28;20646;-63
2023/11/22 22:27:48;;;;;;;6.00;2.45;;;;;;;2.79;58.55;101087.72;10512987;28;20116;-63
2023/11/22 22:32:51;;;;;;;5.55;2.58;;;;;;;2.75;58.74;101085.19;10516250;28;20051;-63
2023/11/22 22:37:53;;;;;;;6.40;2.33;;;;;;;2.70;58.55;101074.88;10483018;28;20047;-63
2023/11/22 22:42:55;;;;;;;4.88;2.45;;;;;;;2.58;58.96;101067.25;10517123;28;20070;-63
2023/11/22 22:47:58;;;;;;;4.68;2.08;;;;;;;2.62;59.30;101070.69;10521624;28;20040;-63
2023/11/22 22:53:00;;;;;;;3.30;1.77;;;;;;;2.63;59.36;101069.81;10519990;28;20044;-63
2023/11/22 22:58:02;;;;;;;4.75;2.35;;;;;;;2.58;59.19;101077.59;10499770;28;20047;-63
2023/11/22 23:03:08;;;;;;;4.40;2.15;;;;;;;2.60;59.37;101093.09;10519000;28;20519;-64
2023/11/22 23:08:10;;;;;;;5.47;2.42;;;;;;;2.42;59.08;101081.19;10520069;28;20071;-62
2023/11/22 23:13:12;;;;;;;3.38;1.65;;;;;;;2.38;59.28;101076.09;10501970;28;20040;-63
2023/11/22 23:18:14;;;;;;;4.63;2.20;;;;;;;2.42;59.50;101060.53;10520779;28;20047;-63
2023/11/22 23:23:16;;;;;;;3.83;2.10;;;;;;;2.47;59.12;101055.34;10519248;28;20048;-63
2023/11/22 23:28:19;;;;;;;3.97;1.75;;;;;;;2.60;59.35;101044.84;10520313;28;20036;-63